Time;durP1;ratioP1;P1;durP2;ratioP2;P2;SDS_P1;SDS_P2;PMS_P1;PMS_P2;Temp;Humidity;BMP_temperature;BMP_pressure;BME280_temperature;BME280_humidity;BME280_pressure;Samples;Min_cycle;Max_cycle;Signal;HPM_P1;HPM_P2
2023/06/16 00:01:40;;;;;;;0.00;0.00;;;16.30;89.30;;;;;;5067986;28;20180;-71
2023/06/16 00:04:06;;;;;;;0.00;0.00;;;16.20;89.60;;;;;;5069791;28;20252;-71
2023/06/16 00:06:31;;;;;;;0.00;0.00;;;16.10;89.90;;;;;;5060177;28;20308;-71
2023/06/16 00:08:58;;;;;;;0.00;0.00;;;16.10;90.10;;;;;;5068207;28;20176;-71
2023/06/16 00:11:27;;;;;;;0.00;0.00;;;16.00;90.20;;;;;;5069305;28;20189;-71
2023/06/16 00:13:54;;;;;;;0.00;0.00;;;16.00;90.50;;;;;;5068563;28;20178;-71
2023/06/16 00:16:20;;;;;;;0.00;0.00;;;16.00;90.60;;;;;;5069807;28;20177;-71
2023/06/16 00:18:51;;;;;;;0.00;0.00;;;16.00;90.70;;;;;;5069107;28;20185;-70
2023/06/16 00:21:19;;;;;;;0.00;0.00;;;15.90;90.80;;;;;;5069160;28;20177;-71
2023/06/16 00:23:46;;;;;;;0.00;0.00;;;15.80;91.00;;;;;;5069474;28;20260;-71
2023/06/16 00:26:12;;;;;;;0.00;0.00;;;15.80;91.10;;;;;;5069669;28;20216;-71
2023/06/16 00:28:38;;;;;;;0.00;0.00;;;15.80;91.30;;;;;;5072935;28;20185;-71
2023/06/16 00:31:04;;;;;;;0.00;0.00;;;15.80;91.40;;;;;;5065712;28;20179;-70
2023/06/16 00:33:29;;;;;;;0.05;0.05;;;15.80;91.60;;;;;;5072898;28;20181;-71
2023/06/16 00:35:55;;;;;;;0.00;0.00;;;15.70;91.70;;;;;;5072084;28;20525;-70
2023/06/16 00:38:21;;;;;;;0.00;0.00;;;15.70;91.90;;;;;;5069461;28;20192;-70
2023/06/16 00:40:46;;;;;;;0.10;0.10;;;15.60;92.00;;;;;;5073163;28;20208;-70
2023/06/16 00:43:12;;;;;;;0.00;0.00;;;15.70;92.10;;;;;;5073030;28;20183;-71
2023/06/16 00:45:37;;;;;;;0.00;0.00;;;15.60;92.00;;;;;;5072976;28;20224;-71
2023/06/16 00:48:03;;;;;;;0.00;0.00;;;15.60;92.10;;;;;;5073155;28;20180;-71
2023/06/16 00:50:30;;;;;;;0.00;0.00;;;15.70;92.20;;;;;;5073149;28;20176;-71
2023/06/16 00:52:56;;;;;;;0.00;0.00;;;15.60;92.20;;;;;;5073057;28;20177;-70
2023/06/16 00:55:22;;;;;;;0.00;0.00;;;15.60;92.40;;;;;;5073134;28;20210;-71
2023/06/16 00:57:53;;;;;;;0.00;0.00;;;15.60;92.60;;;;;;5072931;28;20538;-70
2023/06/16 01:00:20;;;;;;;0.00;0.00;;;15.60;92.60;;;;;;5057269;28;20184;-70
2023/06/16 01:02:46;;;;;;;0.17;0.17;;;15.60;92.60;;;;;;5072829;28;20548;-71
2023/06/16 01:05:20;;;;;;;0.20;0.20;;;15.60;92.80;;;;;;5072891;28;20742;-70
2023/06/16 01:07:52;;;;;;;0.00;0.00;;;15.60;93.00;;;;;;5072716;28;20547;-70
2023/06/16 01:10:21;;;;;;;0.00;0.00;;;15.60;93.10;;;;;;5072212;28;20173;-70
2023/06/16 01:13:00;;;;;;;0.00;0.00;;;15.60;93.20;;;;;;5072214;28;20242;-70
2023/06/16 01:15:27;;;;;;;0.00;0.00;;;15.60;93.20;;;;;;5072510;28;20696;-71
2023/06/16 01:17:57;;;;;;;0.00;0.00;;;15.60;93.10;;;;;;5072201;28;20303;-71
2023/06/16 01:20:38;;;;;;;0.00;0.00;;;15.70;93.10;;;;;;5072426;28;20184;-71
2023/06/16 01:23:33;;;;;;;0.03;0.03;;;15.70;93.10;;;;;;5072032;28;20203;-70
2023/06/16 01:26:03;;;;;;;0.00;0.00;;;15.70;93.50;;;;;;5072221;28;20217;-69
2023/06/16 01:28:31;;;;;;;0.00;0.00;;;15.60;94.00;;;;;;5071808;28;20248;-71
2023/06/16 01:31:00;;;;;;;0.00;0.00;;;15.60;94.30;;;;;;5072120;28;20176;-71
2023/06/16 01:33:28;;;;;;;0.00;0.00;;;15.60;94.60;;;;;;5072028;28;20509;-71
2023/06/16 01:35:55;;;;;;;0.00;0.00;;;15.50;94.70;;;;;;5070778;28;20801;-70
2023/06/16 01:38:23;;;;;;;0.43;0.43;;;15.60;95.00;;;;;;5071245;28;20183;-71
2023/06/16 01:40:52;;;;;;;0.00;0.00;;;15.50;95.00;;;;;;5072090;28;20173;-70
2023/06/16 01:43:19;;;;;;;0.00;0.00;;;15.60;95.20;;;;;;5072281;28;20644;-71
2023/06/16 01:45:46;;;;;;;0.00;0.00;;;15.50;95.10;;;;;;5071147;28;20247;-71
2023/06/16 01:48:11;;;;;;;0.00;0.00;;;15.50;95.20;;;;;;5071593;28;20543;-71
2023/06/16 01:50:37;;;;;;;0.03;0.03;;;15.50;95.20;;;;;;5071366;28;20180;-71
2023/06/16 01:53:02;;;;;;;0.08;0.08;;;15.50;95.50;;;;;;5071205;28;20207;-70
2023/06/16 01:55:28;;;;;;;0.00;0.00;;;15.50;95.60;;;;;;5071561;28;20173;-70
2023/06/16 01:57:56;;;;;;;0.00;0.00;;;15.50;95.60;;;;;;5070529;28;20531;-70
2023/06/16 02:00:26;;;;;;;0.10;0.10;;;15.60;95.70;;;;;;5071130;28;20263;-70
2023/06/16 02:03:20;;;;;;;0.00;0.00;;;15.60;95.60;;;;;;5069483;28;20180;-70
2023/06/16 02:05:50;;;;;;;0.00;0.00;;;15.60;95.60;;;;;;5043792;28;20209;-70
2023/06/16 02:08:20;;;;;;;0.00;0.00;;;15.60;95.50;;;;;;5058957;28;20588;-70
2023/06/16 02:10:47;;;;;;;0.00;0.00;;;15.70;95.40;;;;;;5071134;28;20173;-70
2023/06/16 02:13:13;;;;;;;0.00;0.00;;;15.70;95.40;;;;;;5071252;28;20180;-70
2023/06/16 02:15:38;;;;;;;0.00;0.00;;;15.70;95.30;;;;;;5071335;28;20187;-71
2023/06/16 02:18:04;;;;;;;0.08;0.08;;;15.70;95.30;;;;;;5071170;28;20208;-70
2023/06/16 02:20:29;;;;;;;0.00;0.00;;;15.80;95.40;;;;;;5070387;28;20263;-71
2023/06/16 02:22:55;;;;;;;0.00;0.00;;;15.70;95.40;;;;;;5070746;28;20173;-71
2023/06/16 02:25:21;;;;;;;0.00;0.00;;;15.70;95.70;;;;;;5070646;28;20530;-71
2023/06/16 02:27:47;;;;;;;0.00;0.00;;;15.70;95.90;;;;;;5070795;28;20277;-71
2023/06/16 02:30:13;;;;;;;0.10;0.10;;;15.60;96.00;;;;;;5071026;28;20172;-71
2023/06/16 02:32:39;;;;;;;0.10;0.10;;;15.70;96.10;;;;;;5070774;28;20670;-69
2023/06/16 02:35:06;;;;;;;0.00;0.00;;;15.60;96.40;;;;;;5071119;28;20184;-71
2023/06/16 02:37:35;;;;;;;0.00;0.00;;;15.60;96.40;;;;;;5070909;28;20960;-70
2023/06/16 02:40:03;;;;;;;0.00;0.00;;;15.60;96.50;;;;;;5061175;28;20260;-70
2023/06/16 02:42:28;;;;;;;0.00;0.00;;;15.50;96.60;;;;;;5050954;28;20182;-71
2023/06/16 02:44:54;;;;;;;0.00;0.00;;;15.50;96.90;;;;;;5050848;28;20257;-70
2023/06/16 02:47:19;;;;;;;0.00;0.00;;;15.50;97.00;;;;;;5063321;28;20209;-70
2023/06/16 02:49:45;;;;;;;0.03;0.03;;;15.40;97.10;;;;;;5068357;28;20214;-69
2023/06/16 02:52:11;;;;;;;0.47;0.10;;;15.40;97.50;;;;;;5070445;28;20177;-70
2023/06/16 02:54:38;;;;;;;0.00;0.00;;;15.40;97.60;;;;;;5069628;28;20659;-70
2023/06/16 02:57:05;;;;;;;0.00;0.00;;;15.30;97.90;;;;;;5070167;28;20643;-70
2023/06/16 02:59:31;;;;;;;0.00;0.00;;;15.30;98.00;;;;;;5070634;28;20169;-70
2023/06/16 03:01:56;;;;;;;0.00;0.00;;;15.30;98.20;;;;;;5070387;28;20169;-70
2023/06/16 03:04:22;;;;;;;0.00;0.00;;;15.20;98.30;;;;;;5070123;28;20176;-70
2023/06/16 03:06:47;;;;;;;0.00;0.00;;;15.20;98.60;;;;;;5070278;28;20300;-70
2023/06/16 03:09:13;;;;;;;0.10;0.10;;;15.10;98.70;;;;;;5069833;28;20181;-70
2023/06/16 03:11:38;;;;;;;0.00;0.00;;;15.10;98.90;;;;;;5070283;28;20303;-70
2023/06/16 03:14:04;;;;;;;0.00;0.00;;;15.00;99.00;;;;;;5070463;28;20168;-71
2023/06/16 03:16:30;;;;;;;0.20;0.20;;;15.00;99.20;;;;;;5069971;28;20191;-70
2023/06/16 03:18:55;;;;;;;0.03;0.03;;;14.90;99.20;;;;;;5070206;28;20198;-71
2023/06/16 03:21:21;;;;;;;0.00;0.00;;;14.90;99.40;;;;;;5070173;28;20530;-72
2023/06/16 03:23:47;;;;;;;0.00;0.00;;;14.90;99.40;;;;;;5069034;28;20169;-69
2023/06/16 03:26:13;;;;;;;0.00;0.00;;;14.90;99.40;;;;;;5069913;28;20618;-67
2023/06/16 03:28:40;;;;;;;0.00;0.00;;;14.90;99.50;;;;;;5071328;28;20180;-69
2023/06/16 03:31:06;;;;;;;0.00;0.00;;;14.90;99.50;;;;;;5069063;28;20575;-68
2023/06/16 03:33:31;;;;;;;0.00;0.00;;;14.80;99.50;;;;;;5070384;28;20207;-71
2023/06/16 03:35:57;;;;;;;0.00;0.00;;;14.80;99.50;;;;;;5069628;28;20230;-71
2023/06/16 03:38:23;;;;;;;0.00;0.00;;;14.80;99.60;;;;;;5069485;28;20203;-73
2023/06/16 03:40:48;;;;;;;0.00;0.00;;;14.80;99.70;;;;;;5067516;28;20663;-71
2023/06/16 03:43:15;;;;;;;0.00;0.00;;;14.70;99.80;;;;;;5066403;28;20204;-73
2023/06/16 03:45:40;;;;;;;0.00;0.00;;;14.80;99.90;;;;;;5069694;28;20179;-67
2023/06/16 03:48:07;;;;;;;0.00;0.00;;;14.80;99.90;;;;;;5069770;28;20172;-71
2023/06/16 03:50:32;;;;;;;0.00;0.00;;;14.80;99.90;;;;;;5069199;28;20242;-72
2023/06/16 03:52:58;;;;;;;0.20;0.20;;;14.80;99.90;;;;;;5068845;28;20181;-72
2023/06/16 03:55:24;;;;;;;0.00;0.00;;;14.80;99.90;;;;;;5068109;28;20172;-72
2023/06/16 03:57:50;;;;;;;0.00;0.00;;;14.80;99.90;;;;;;5069613;28;20259;-70
2023/06/16 04:00:16;;;;;;;0.00;0.00;;;14.80;99.90;;;;;;5069214;28;20177;-67
2023/06/16 04:02:42;;;;;;;0.10;0.10;;;14.80;99.90;;;;;;5070806;28;20172;-66
2023/06/16 04:05:08;;;;;;;0.00;0.00;;;14.80;99.90;;;;;;5072835;28;20184;-68
2023/06/16 04:07:35;;;;;;;0.10;0.10;;;14.80;99.90;;;;;;5071666;28;20215;-70
2023/06/16 04:10:01;;;;;;;0.00;0.00;;;14.80;99.90;;;;;;5069189;28;20215;-69
2023/06/16 04:12:26;;;;;;;0.00;0.00;;;14.90;99.90;;;;;;5072096;28;20227;-72
2023/06/16 04:14:52;;;;;;;0.10;0.10;;;14.90;99.90;;;;;;5072315;28;20173;-71
2023/06/16 04:17:17;;;;;;;0.17;0.17;;;15.00;99.90;;;;;;5072799;28;20230;-71
2023/06/16 04:19:43;;;;;;;0.00;0.00;;;15.10;99.90;;;;;;5072987;28;20179;-71
2023/06/16 04:22:08;;;;;;;0.00;0.00;;;15.20;99.80;;;;;;5073064;28;20481;-72
2023/06/16 04:24:34;;;;;;;0.00;0.00;;;15.40;99.30;;;;;;5073055;28;20603;-70
2023/06/16 04:27:02;;;;;;;0.00;0.00;;;15.60;98.80;;;;;;5072554;28;20815;-71
2023/06/16 04:29:28;;;;;;;0.00;0.00;;;15.80;98.50;;;;;;5071822;28;20949;-70
2023/06/16 04:31:59;;;;;;;0.00;0.00;;;16.00;98.10;;;;;;5074783;28;20185;-70
2023/06/16 04:34:26;;;;;;;0.10;0.10;;;16.20;98.00;;;;;;5075773;28;20169;-71
2023/06/16 04:36:57;;;;;;;0.00;0.00;;;16.50;97.30;;;;;;5074067;28;20215;-71
2023/06/16 04:39:23;;;;;;;0.00;0.00;;;16.70;96.80;;;;;;5076131;28;20181;-71
2023/06/16 04:41:50;;;;;;;0.00;0.00;;;16.90;96.40;;;;;;5064859;28;20185;-70
2023/06/16 04:44:15;;;;;;;0.00;0.00;;;17.20;95.90;;;;;;5057085;28;20177;-70
2023/06/16 04:46:41;;;;;;;0.00;0.00;;;17.40;95.40;;;;;;5060663;28;20321;-70
2023/06/16 04:49:06;;;;;;;0.00;0.00;;;17.70;94.80;;;;;;5057533;28;20193;-70
2023/06/16 04:51:33;;;;;;;0.00;0.00;;;17.90;94.10;;;;;;5052972;28;20220;-70
2023/06/16 04:53:59;;;;;;;0.00;0.00;;;18.20;93.80;;;;;;5072028;28;20200;-70
2023/06/16 04:56:24;;;;;;;0.08;0.08;;;18.50;93.10;;;;;;5067686;28;20672;-70
2023/06/16 04:58:50;;;;;;;0.00;0.00;;;18.80;92.30;;;;;;5072347;28;20576;-71
2023/06/16 05:01:16;;;;;;;0.00;0.00;;;19.10;91.80;;;;;;5072912;28;20634;-70
2023/06/16 05:03:41;;;;;;;0.00;0.00;;;19.40;91.10;;;;;;5072970;28;20169;-70
2023/06/16 05:06:07;;;;;;;0.00;0.00;;;19.70;90.50;;;;;;5072785;28;20213;-70
2023/06/16 05:08:33;;;;;;;0.00;0.00;;;20.00;90.00;;;;;;5073309;28;20169;-70
2023/06/16 05:10:59;;;;;;;0.00;0.00;;;20.20;89.70;;;;;;5073135;28;20662;-70
2023/06/16 05:13:24;;;;;;;0.00;0.00;;;20.50;88.50;;;;;;5072970;28;20169;-70
2023/06/16 05:15:50;;;;;;;0.00;0.00;;;20.80;87.20;;;;;;5073139;28;20664;-71
2023/06/16 05:18:16;;;;;;;0.00;0.00;;;21.10;86.20;;;;;;5071219;28;20191;-72
2023/06/16 05:20:41;;;;;;;0.00;0.00;;;21.50;84.80;;;;;;5072570;28;20263;-71
2023/06/16 05:23:07;;;;;;;0.00;0.00;;;21.90;83.20;;;;;;5072753;28;20671;-72
2023/06/16 05:25:32;;;;;;;0.00;0.00;;;22.40;81.50;;;;;;5072255;28;20189;-69
2023/06/16 05:27:58;;;;;;;0.00;0.00;;;22.80;79.80;;;;;;5072494;28;20236;-70
2023/06/16 05:30:23;;;;;;;0.00;0.00;;;23.20;79.50;;;;;;5071287;28;20184;-70
2023/06/16 05:32:49;;;;;;;0.00;0.00;;;23.50;77.70;;;;;;5072421;28;20184;-70
2023/06/16 05:35:14;;;;;;;0.00;0.00;;;23.80;76.40;;;;;;5071163;28;20696;-70
2023/06/16 05:37:40;;;;;;;0.00;0.00;;;24.20;73.60;;;;;;5070891;28;20538;-71
2023/06/16 05:40:06;;;;;;;0.00;0.00;;;24.50;72.00;;;;;;5072238;28;20196;-70
2023/06/16 05:42:33;;;;;;;0.00;0.00;;;24.80;71.40;;;;;;5071999;28;20254;-69
2023/06/16 05:44:58;;;;;;;0.00;0.00;;;25.20;70.50;;;;;;5072144;28;20631;-69
2023/06/16 05:47:24;;;;;;;0.00;0.00;;;25.70;68.10;;;;;;5072103;28;20250;-70
2023/06/16 05:49:50;;;;;;;0.00;0.00;;;26.10;66.40;;;;;;5071991;28;20252;-70
2023/06/16 05:52:15;;;;;;;0.00;0.00;;;26.50;64.70;;;;;;5072109;28;20203;-71
2023/06/16 05:54:41;;;;;;;0.00;0.00;;;26.80;63.20;;;;;;5053903;28;20663;-69
2023/06/16 05:57:07;;;;;;;0.00;0.00;;;27.00;61.10;;;;;;5065936;28;20180;-69
2023/06/16 05:59:34;;;;;;;0.00;0.00;;;27.20;60.50;;;;;;5072053;28;20175;-70
2023/06/16 06:02:00;;;;;;;0.00;0.00;;;27.40;59.30;;;;;;5071909;28;20246;-70
2023/06/16 06:04:30;;;;;;;0.00;0.00;;;27.60;58.30;;;;;;5071944;28;20165;-71
2023/06/16 06:06:56;;;;;;;0.00;0.00;;;27.70;58.50;;;;;;5071725;28;20303;-70
2023/06/16 06:09:23;;;;;;;0.00;0.00;;;27.90;57.60;;;;;;5071828;28;20563;-70
2023/06/16 06:11:49;;;;;;;0.00;0.00;;;28.00;57.40;;;;;;5071610;28;20268;-70
2023/06/16 06:14:15;;;;;;;0.00;0.00;;;28.30;57.20;;;;;;5071798;28;20222;-71
2023/06/16 06:16:41;;;;;;;0.00;0.00;;;28.60;56.20;;;;;;5071648;28;20173;-71
2023/06/16 06:19:06;;;;;;;0.20;0.10;;;29.00;54.60;;;;;;5071587;28;20172;-71
2023/06/16 06:21:33;;;;;;;0.00;0.00;;;29.10;53.60;;;;;;5070104;28;20179;-70
2023/06/16 06:23:59;;;;;;;0.00;0.00;;;29.40;53.20;;;;;;5071093;28;20177;-70
2023/06/16 06:26:25;;;;;;;0.00;0.00;;;29.70;51.50;;;;;;5071428;28;20211;-71
2023/06/16 06:28:50;;;;;;;0.00;0.00;;;30.30;49.80;;;;;;5071567;28;20187;-71
2023/06/16 06:31:16;;;;;;;0.00;0.00;;;30.60;49.60;;;;;;5071523;28;20206;-72
2023/06/16 06:33:41;;;;;;;0.15;0.15;;;30.80;49.90;;;;;;5071340;28;20172;-71
2023/06/16 06:36:07;;;;;;;0.00;0.00;;;30.90;49.70;;;;;;5071483;28;20172;-71
2023/06/16 06:38:32;;;;;;;0.00;0.00;;;31.00;50.10;;;;;;5071246;28;20184;-71
2023/06/16 06:40:58;;;;;;;0.00;0.00;;;31.20;49.50;;;;;;5071210;28;20176;-71
2023/06/16 06:43:25;;;;;;;0.00;0.00;;;31.40;50.00;;;;;;5071359;28;20188;-71
2023/06/16 06:45:50;;;;;;;0.00;0.00;;;31.60;49.90;;;;;;5071004;28;20180;-70
2023/06/16 06:48:17;;;;;;;0.00;0.00;;;31.70;49.30;;;;;;5071304;28;20190;-70
2023/06/16 06:50:43;;;;;;;0.10;0.10;;;31.90;49.10;;;;;;5071095;28;20196;-70
2023/06/16 06:53:08;;;;;;;0.00;0.00;;;32.30;48.80;;;;;;5071345;28;20211;-70
2023/06/16 06:55:34;;;;;;;0.00;0.00;;;33.00;47.70;;;;;;5071018;28;20273;-70
2023/06/16 06:58:00;;;;;;;0.00;0.00;;;32.90;45.50;;;;;;5058213;28;20184;-70
2023/06/16 07:00:25;;;;;;;0.10;0.10;;;33.00;46.90;;;;;;5051221;28;20200;-71
2023/06/16 07:02:51;;;;;;;0.00;0.00;;;33.10;45.80;;;;;;5050823;28;20203;-70
2023/06/16 07:05:16;;;;;;;0.00;0.00;;;33.20;44.90;;;;;;5050880;28;20179;-70
2023/06/16 07:07:42;;;;;;;0.00;0.00;;;33.20;45.30;;;;;;5050868;28;20204;-70
2023/06/16 07:10:08;;;;;;;0.00;0.00;;;33.10;45.10;;;;;;5051111;28;20177;-71
2023/06/16 07:12:33;;;;;;;0.00;0.00;;;33.20;44.20;;;;;;5050802;28;20172;-72
2023/06/16 07:14:59;;;;;;;0.00;0.00;;;33.40;43.50;;;;;;5050812;28;20233;-72
2023/06/16 07:17:25;;;;;;;0.00;0.00;;;33.50;43.40;;;;;;5050970;28;20177;-71
2023/06/16 07:19:50;;;;;;;0.00;0.00;;;33.80;42.60;;;;;;5050561;28;20786;-71
2023/06/16 07:22:16;;;;;;;0.00;0.00;;;33.90;42.00;;;;;;5050898;28;20177;-70
2023/06/16 07:24:42;;;;;;;0.00;0.00;;;34.00;42.40;;;;;;5050904;28;20640;-70
2023/06/16 07:27:08;;;;;;;0.00;0.00;;;34.20;42.00;;;;;;5050585;28;20236;-70
2023/06/16 07:29:34;;;;;;;0.10;0.10;;;34.00;41.80;;;;;;5050709;28;20187;-70
2023/06/16 07:32:00;;;;;;;0.00;0.00;;;33.50;42.40;;;;;;5050664;28;20169;-70
2023/06/16 07:34:25;;;;;;;0.00;0.00;;;33.80;42.30;;;;;;5050769;28;20169;-70
2023/06/16 07:36:51;;;;;;;0.00;0.00;;;34.40;42.30;;;;;;5052174;28;20663;-71
2023/06/16 07:39:17;;;;;;;0.00;0.00;;;34.80;40.60;;;;;;5054792;28;20169;-70
2023/06/16 07:41:43;;;;;;;0.00;0.00;;;35.00;38.80;;;;;;5054615;28;20322;-70
2023/06/16 07:44:08;;;;;;;0.00;0.00;;;34.70;37.10;;;;;;5054739;28;20256;-70
2023/06/16 07:46:34;;;;;;;0.20;0.20;;;34.70;37.80;;;;;;5054322;28;20208;-70
2023/06/16 07:49:00;;;;;;;0.00;0.00;;;34.90;38.50;;;;;;5054665;28;20173;-70
2023/06/16 07:51:27;;;;;;;0.00;0.00;;;34.80;37.00;;;;;;5054613;28;20179;-70
2023/06/16 07:53:52;;;;;;;0.00;0.00;;;34.80;38.10;;;;;;5054432;28;20181;-70
2023/06/16 07:56:18;;;;;;;0.08;0.08;;;35.00;37.80;;;;;;5056260;28;20668;-71
2023/06/16 07:58:44;;;;;;;0.00;0.00;;;34.50;37.70;;;;;;5059908;28;20188;-70
2023/06/16 08:01:10;;;;;;;0.00;0.00;;;34.80;38.60;;;;;;5063643;28;20260;-71
2023/06/16 08:03:36;;;;;;;0.00;0.00;;;34.70;38.30;;;;;;5054329;28;20268;-70
2023/06/16 08:06:01;;;;;;;0.30;0.20;;;34.90;39.20;;;;;;5054078;28;20216;-70
2023/06/16 08:08:27;;;;;;;0.20;0.20;;;35.20;39.10;;;;;;5054429;28;20235;-70
2023/06/16 08:10:57;;;;;;;0.00;0.00;;;35.40;39.10;;;;;;5054016;28;20243;-70
2023/06/16 08:13:24;;;;;;;0.00;0.00;;;35.20;38.20;;;;;;5054365;28;20264;-70
2023/06/16 08:15:49;;;;;;;0.20;0.20;;;34.70;37.10;;;;;;5054042;28;20180;-70
2023/06/16 08:18:17;;;;;;;0.25;0.25;;;34.70;39.10;;;;;;5059197;28;20176;-70
2023/06/16 08:20:44;;;;;;;0.00;0.00;;;34.70;39.70;;;;;;5074023;28;20183;-68
2023/06/16 08:23:10;;;;;;;0.00;0.00;;;34.40;39.20;;;;;;5073865;28;20669;-67
2023/06/16 08:25:35;;;;;;;0.00;0.00;;;34.50;39.50;;;;;;5073623;28;20208;-67
2023/06/16 08:28:03;;;;;;;0.00;0.00;;;34.20;39.80;;;;;;5073706;28;20227;-67
2023/06/16 08:30:28;;;;;;;0.00;0.00;;;34.20;40.20;;;;;;5073826;28;20165;-68
2023/06/16 08:32:54;;;;;;;0.00;0.00;;;34.00;40.80;;;;;;5073610;28;20175;-67
2023/06/16 08:35:20;;;;;;;0.00;0.00;;;33.50;41.30;;;;;;5073778;28;20544;-67
2023/06/16 08:37:45;;;;;;;0.00;0.00;;;33.60;41.20;;;;;;5073931;28;20261;-67
2023/06/16 08:40:11;;;;;;;0.00;0.00;;;33.40;40.50;;;;;;5073621;28;20662;-69
2023/06/16 08:42:38;;;;;;;0.00;0.00;;;33.20;40.40;;;;;;5072407;28;20168;-69
2023/06/16 08:45:05;;;;;;;0.00;0.00;;;33.30;41.00;;;;;;5073638;28;20188;-69
2023/06/16 08:47:31;;;;;;;0.00;0.00;;;33.40;39.90;;;;;;5072710;28;20216;-69
2023/06/16 08:49:57;;;;;;;0.00;0.00;;;33.30;39.20;;;;;;5073331;28;20187;-69
2023/06/16 08:52:23;;;;;;;0.00;0.00;;;32.30;39.40;;;;;;5073508;28;20247;-70
2023/06/16 08:54:57;;;;;;;0.00;0.00;;;32.40;40.90;;;;;;5073280;28;20172;-70
2023/06/16 08:57:23;;;;;;;0.00;0.00;;;32.90;41.30;;;;;;5073367;28;20226;-70
2023/06/16 08:59:53;;;;;;;0.00;0.00;;;33.40;39.20;;;;;;5073249;28;20276;-71
2023/06/16 09:02:20;;;;;;;0.00;0.00;;;33.50;38.40;;;;;;5072055;28;20254;-69
2023/06/16 09:04:46;;;;;;;0.00;0.00;;;33.70;38.20;;;;;;5073241;28;20180;-69
2023/06/16 09:07:15;;;;;;;0.20;0.20;;;33.80;37.90;;;;;;5054935;28;20224;-69
2023/06/16 09:09:40;;;;;;;0.00;0.00;;;33.80;38.40;;;;;;5053023;28;20172;-69
2023/06/16 09:12:13;;;;;;;0.00;0.00;;;33.80;37.20;;;;;;5053208;28;20561;-70
2023/06/16 09:14:39;;;;;;;0.00;0.00;;;34.00;37.70;;;;;;5052974;28;20172;-69
2023/06/16 09:17:07;;;;;;;0.00;0.00;;;34.20;37.00;;;;;;5052897;28;20231;-69
2023/06/16 09:19:36;;;;;;;0.00;0.00;;;34.40;35.70;;;;;;5068541;28;20263;-70
2023/06/16 09:22:02;;;;;;;0.00;0.00;;;34.40;36.30;;;;;;5073097;28;20732;-69
2023/06/16 09:24:28;;;;;;;0.00;0.00;;;34.50;36.90;;;;;;5072943;28;20187;-70
2023/06/16 09:26:59;;;;;;;0.00;0.00;;;34.50;37.10;;;;;;5072341;28;20318;-71
2023/06/16 09:29:26;;;;;;;0.00;0.00;;;34.70;36.50;;;;;;5072950;28;20176;-70
2023/06/16 09:31:52;;;;;;;0.00;0.00;;;35.00;36.10;;;;;;5072641;28;20528;-69
2023/06/16 09:34:18;;;;;;;0.00;0.00;;;35.10;36.20;;;;;;5072913;28;20164;-71
2023/06/16 09:36:44;;;;;;;0.08;0.08;;;35.40;35.90;;;;;;5072653;28;20539;-70
2023/06/16 09:39:24;;;;;;;0.00;0.00;;;35.50;35.50;;;;;;5072617;28;20176;-70
2023/06/16 09:41:50;;;;;;;0.00;0.00;;;35.60;33.90;;;;;;5071161;28;20552;-69
2023/06/16 09:44:16;;;;;;;0.00;0.00;;;35.50;33.60;;;;;;5072639;28;20168;-70
2023/06/16 09:46:42;;;;;;;0.00;0.00;;;35.50;33.20;;;;;;5072279;28;20212;-70
2023/06/16 09:49:19;;;;;;;0.00;0.00;;;35.40;32.80;;;;;;5072408;28;20226;-70
2023/06/16 09:51:50;;;;;;;0.00;0.00;;;35.20;32.00;;;;;;5072214;28;20176;-70
2023/06/16 09:54:16;;;;;;;0.00;0.00;;;34.70;32.10;;;;;;5072416;28;20226;-70
2023/06/16 09:56:44;;;;;;;0.00;0.00;;;34.30;33.70;;;;;;5072139;28;20176;-70
2023/06/16 09:59:10;;;;;;;0.00;0.00;;;34.10;34.30;;;;;;5071542;28;20215;-70
2023/06/16 10:01:38;;;;;;;0.00;0.00;;;34.10;34.40;;;;;;5072030;28;20200;-70
2023/06/16 10:04:05;;;;;;;0.00;0.00;;;34.30;34.10;;;;;;5072131;28;20168;-70
2023/06/16 10:06:33;;;;;;;0.00;0.00;;;34.30;33.60;;;;;;5071594;28;20212;-70
2023/06/16 10:09:01;;;;;;;0.00;0.00;;;34.40;32.40;;;;;;5071973;28;20261;-70
2023/06/16 10:11:30;;;;;;;0.00;0.00;;;34.50;32.50;;;;;;5071697;28;20169;-70
2023/06/16 10:14:00;;;;;;;0.00;0.00;;;34.50;33.00;;;;;;5071667;28;20187;-70
2023/06/16 10:16:29;;;;;;;0.10;0.10;;;34.70;33.70;;;;;;5071906;28;20168;-70
2023/06/16 10:18:58;;;;;;;0.00;0.00;;;34.80;33.20;;;;;;5071512;28;20246;-70
2023/06/16 10:21:25;;;;;;;0.20;0.20;;;34.80;33.30;;;;;;5071807;28;20163;-69
2023/06/16 10:23:51;;;;;;;0.40;0.00;;;34.80;32.10;;;;;;5071511;28;20172;-70
2023/06/16 10:26:18;;;;;;;0.00;0.00;;;34.30;31.90;;;;;;5071229;28;20294;-70
2023/06/16 10:28:44;;;;;;;0.00;0.00;;;34.30;31.70;;;;;;5071550;28;20668;-70
2023/06/16 10:31:11;;;;;;;0.00;0.00;;;34.00;31.50;;;;;;5071675;28;20191;-70
2023/06/16 10:33:59;;;;;;;0.00;0.00;;;33.80;32.60;;;;;;5071546;28;20187;-70
2023/06/16 10:36:33;;;;;;;0.00;0.00;;;33.70;33.50;;;;;;5071654;28;20180;-70
2023/06/16 10:39:06;;;;;;;0.00;0.00;;;33.60;34.20;;;;;;5071405;28;20255;-70
2023/06/16 10:41:33;;;;;;;0.00;0.00;;;33.50;34.50;;;;;;5071352;28;20651;-70
2023/06/16 10:44:24;;;;;;;0.00;0.00;;;33.60;33.30;;;;;;5071251;28;20164;-70
2023/06/16 10:47:08;;;;;;;0.00;0.00;;;33.40;33.60;;;;;;5071163;28;20246;-70
2023/06/16 10:49:52;;;;;;;0.00;0.00;;;33.00;33.50;;;;;;5071226;28;20172;-70
2023/06/16 10:52:29;;;;;;;0.00;0.00;;;32.70;33.90;;;;;;5071424;28;20564;-70
2023/06/16 10:54:56;;;;;;;0.00;0.00;;;32.30;34.60;;;;;;5069793;28;20220;-68
2023/06/16 10:57:22;;;;;;;0.00;0.00;;;31.80;35.10;;;;;;5069844;28;20177;-69
2023/06/16 10:59:51;;;;;;;0.00;0.00;;;31.90;35.20;;;;;;5070965;28;20177;-68
2023/06/16 11:02:28;;;;;;;0.00;0.00;;;31.80;35.00;;;;;;5071120;28;20168;-69
2023/06/16 11:05:10;;;;;;;0.10;0.10;;;32.00;36.00;;;;;;5071085;28;20531;-69
2023/06/16 11:08:08;;;;;;;0.00;0.00;;;32.20;35.30;;;;;;5050968;28;20298;-68
2023/06/16 11:10:53;;;;;;;0.00;0.00;;;32.20;34.70;;;;;;5045103;28;20192;-68
2023/06/16 11:13:22;;;;;;;0.00;0.00;;;32.10;34.80;;;;;;5052981;28;20181;-69
2023/06/16 11:15:48;;;;;;;0.00;0.00;;;32.20;34.30;;;;;;5069860;28;20559;-68
2023/06/16 11:18:14;;;;;;;0.00;0.00;;;32.10;35.60;;;;;;5070669;28;20173;-69
2023/06/16 11:20:40;;;;;;;0.00;0.00;;;32.20;35.80;;;;;;5070881;28;20160;-69
2023/06/16 11:23:07;;;;;;;0.52;0.52;;;32.40;36.20;;;;;;5070787;28;20632;-68
2023/06/16 11:25:33;;;;;;;0.00;0.00;;;32.80;36.90;;;;;;5070724;28;20172;-68
2023/06/16 11:27:59;;;;;;;0.00;0.00;;;33.00;35.60;;;;;;5070646;28;20298;-69
2023/06/16 11:30:25;;;;;;;0.00;0.00;;;33.20;34.60;;;;;;5070893;28;20208;-68
2023/06/16 11:32:52;;;;;;;0.00;0.00;;;33.40;34.80;;;;;;5070322;28;20181;-68
2023/06/16 11:35:18;;;;;;;0.00;0.00;;;32.90;34.30;;;;;;5070886;28;20165;-68
2023/06/16 11:37:51;;;;;;;0.00;0.00;;;32.70;34.60;;;;;;5070542;28;20264;-68
2023/06/16 11:40:22;;;;;;;0.00;0.00;;;32.30;34.90;;;;;;5070716;28;20168;-69
2023/06/16 11:43:04;;;;;;;0.00;0.00;;;32.30;35.30;;;;;;5070588;28;20340;-68
2023/06/16 11:45:38;;;;;;;0.00;0.00;;;32.30;34.90;;;;;;5070674;28;20173;-68
2023/06/16 11:48:08;;;;;;;0.00;0.00;;;32.50;35.40;;;;;;5070579;28;20220;-69
2023/06/16 11:50:35;;;;;;;0.00;0.00;;;32.80;36.50;;;;;;5070600;28;20172;-68
2023/06/16 11:53:00;;;;;;;0.43;0.20;;;33.10;36.60;;;;;;5070445;28;20192;-68
2023/06/16 11:55:26;;;;;;;0.00;0.00;;;33.30;35.10;;;;;;5069321;28;20279;-68
2023/06/16 11:57:52;;;;;;;0.00;0.00;;;33.30;35.10;;;;;;5070447;28;20192;-68
2023/06/16 12:00:20;;;;;;;0.35;0.30;;;33.30;36.00;;;;;;5069126;28;20211;-69
2023/06/16 12:02:48;;;;;;;0.00;0.00;;;33.50;35.10;;;;;;5070453;28;20636;-69
2023/06/16 12:05:30;;;;;;;0.00;0.00;;;33.20;34.10;;;;;;5070376;28;20173;-68
2023/06/16 12:07:55;;;;;;;0.00;0.00;;;32.80;35.40;;;;;;5070372;28;20208;-68
2023/06/16 12:10:25;;;;;;;0.00;0.00;;;33.00;35.40;;;;;;5070137;28;20572;-68
2023/06/16 12:12:51;;;;;;;0.00;0.00;;;33.10;35.20;;;;;;5070359;28;20249;-68
2023/06/16 12:15:20;;;;;;;0.45;0.20;;;33.10;36.00;;;;;;5070176;28;20176;-68
2023/06/16 12:17:47;;;;;;;0.00;0.00;;;33.20;35.00;;;;;;5070152;28;20172;-68
2023/06/16 12:20:13;;;;;;;0.00;0.00;;;33.20;35.00;;;;;;5070232;28;20200;-69
2023/06/16 12:22:39;;;;;;;0.00;0.00;;;33.30;34.80;;;;;;5071453;28;20636;-69
2023/06/16 12:25:16;;;;;;;0.00;0.00;;;32.80;34.70;;;;;;5073982;28;20242;-69
2023/06/16 12:27:45;;;;;;;0.10;0.10;;;32.50;35.50;;;;;;5073592;28;20793;-70
2023/06/16 12:30:14;;;;;;;0.00;0.00;;;32.40;35.30;;;;;;5073719;28;20173;-69
2023/06/16 12:32:41;;;;;;;0.00;0.00;;;32.50;36.00;;;;;;5073881;28;20172;-68
2023/06/16 12:35:07;;;;;;;0.00;0.00;;;32.80;36.00;;;;;;5073780;28;20176;-69
2023/06/16 12:37:33;;;;;;;0.00;0.00;;;33.00;35.20;;;;;;5073624;28;20184;-69
2023/06/16 12:40:07;;;;;;;0.00;0.00;;;33.10;34.90;;;;;;5073731;28;20172;-68
2023/06/16 12:42:34;;;;;;;0.00;0.00;;;33.20;35.00;;;;;;5073577;28;20176;-68
2023/06/16 12:45:04;;;;;;;0.00;0.00;;;33.30;34.00;;;;;;5073678;28;20631;-68
2023/06/16 12:47:31;;;;;;;0.00;0.00;;;33.00;34.60;;;;;;5073649;28;20610;-68
2023/06/16 12:49:59;;;;;;;0.00;0.00;;;33.00;34.90;;;;;;5073511;28;20195;-69